Aérodrome :
LOGIN :

S'inscrire | Disclaimer

   EN    FR    IT 

 










Légende :    VFR   VFR Marginal   IFR   IFR Intensif   IFR Très Intensif
Visi : 
Plafond : 
>= 8 km
>= 3000ft
5 à 8 km
1000 à 3000 ft
1500m à 5 km
500 à 1000 ft
800 à 1500m
200 à 500 ft
< 800m
< 200 ft
Symboles :   Orages  Brouillard  Fortes neiges  Fortes précipitations  Vent > 20 kt
SIGMETs :   Divers  Orages  Givrage  Turbulence  Onde Orograph.  Cendres Volcan.







- Altitude de l'aérodrome : 466 ft


LHPA - Pápa

DERNIER METAR :
  • 251545Z 34008KT CAVOK 11/00 Q1013 TEMPO -RA -SHRA RMK BLU

METARs EXPIRÉS :
  • 251515Z 32008KT 290V350 9999 FEW043TCU SCT067 BKN083 OVC200 11/00 Q1013 TEMPO -RA -SHRA RMK BLU
  • 251445Z 34010KT 310V010 9999 SCT040TCU SCT067 BKN083 OVC200 11/01 Q1012 TEMPO -RA -SHRA RMK BLU
  • 251415Z 35010KT 9999 SCT040TCU SCT067 BKN083 OVC200 12/01 Q1013 TEMPO -RA -SHRA RMK BLU
  • 251345Z 31017G27KT 9999 SCT040TCU BKN067 12/M01 Q1013 TEMPO -SHRA RMK BLU
  • 251315Z 31019G29KT 9999 SCT040TCU BKN067 13/M01 Q1012 TEMPO -SHRA RMK BLU

TAF TAF LHPA
Valide du 25 à 12h jusqu'au 26 à 12h UTC


251115Z 2512/2612 33014G24KT CAVOK
PROB40
TEMPO 2512/2519 6000 SHRA BKN030TCU BKN083
BECMG 2519/2522 33010KT
TEMPO 2519/2604 9999 SCT030
BECMG 2603/2606 34013G26KT
TEMPO 2608/2612 9999 BKN030TCU
Pas de NOTAMs connus pour ce terrain.



MET'MAP, la Météo Aéronautique d'un coup d'oeil ! - Copyright ORBIFLY Décembre 2007 - Disclaimer

ORBIFLY MET'MAP TEAM :

Programmation & Développement : Alexandra Zaïnal
Conception & Développement : Baudouin d'Aumeries
Co-Programmation & Développement : Marc-Olivier Méhu
Soutien technique & logistique : Manuel Goepfert

Contact : metmap@orbifly.com




SOURCES & CREDITS :

   NOAA